sensor_id;sensor_type;location;lat;lon;timestamp;pressure;altitude;pressure_sealevel;temperature;humidity
14689;BME280;7432;48.728;9.154;2023-04-22T00:01:19;95950.03;;;11.26;84.77
14689;BME280;7432;48.728;9.154;2023-04-22T00:03:48;95938.31;;;11.23;85.30
14689;BME280;7432;48.728;9.154;2023-04-22T00:06:16;95938.31;;;11.23;85.40
14689;BME280;7432;48.728;9.154;2023-04-22T00:08:42;95936.09;;;11.20;86.12
14689;BME280;7432;48.728;9.154;2023-04-22T00:11:09;95943.81;;;11.20;85.90
14689;BME280;7432;48.728;9.154;2023-04-22T00:13:36;95935.13;;;11.21;86.73
14689;BME280;7432;48.728;9.154;2023-04-22T00:16:02;95929.50;;;11.18;86.96
14689;BME280;7432;48.728;9.154;2023-04-22T00:18:29;95933.09;;;11.17;86.54
14689;BME280;7432;48.728;9.154;2023-04-22T00:20:55;95926.88;;;11.11;86.75
14689;BME280;7432;48.728;9.154;2023-04-22T00:23:23;95932.19;;;11.10;87.55
14689;BME280;7432;48.728;9.154;2023-04-22T00:25:50;95932.53;;;11.07;88.19
14689;BME280;7432;48.728;9.154;2023-04-22T00:28:16;95933.34;;;11.07;88.14
14689;BME280;7432;48.728;9.154;2023-04-22T00:30:43;95935.09;;;11.07;88.06
14689;BME280;7432;48.728;9.154;2023-04-22T00:33:09;95936.53;;;11.09;88.54
14689;BME280;7432;48.728;9.154;2023-04-22T00:35:35;95938.47;;;11.07;88.35
14689;BME280;7432;48.728;9.154;2023-04-22T00:38:02;95927.72;;;11.04;89.04
14689;BME280;7432;48.728;9.154;2023-04-22T00:40:29;95937.25;;;11.03;88.59
14689;BME280;7432;48.728;9.154;2023-04-22T00:42:57;95935.63;;;11.02;88.40
14689;BME280;7432;48.728;9.154;2023-04-22T00:45:25;95929.06;;;11.00;88.35
14689;BME280;7432;48.728;9.154;2023-04-22T00:47:51;95927.66;;;10.97;88.25
14689;BME280;7432;48.728;9.154;2023-04-22T00:50:18;95930.22;;;10.97;88.49
14689;BME280;7432;48.728;9.154;2023-04-22T00:52:44;95930.38;;;10.96;88.94
14689;BME280;7432;48.728;9.154;2023-04-22T00:55:11;95936.34;;;10.96;88.75
14689;BME280;7432;48.728;9.154;2023-04-22T00:57:39;95933.94;;;10.95;88.58
14689;BME280;7432;48.728;9.154;2023-04-22T01:00:06;95937.84;;;10.91;89.15
14689;BME280;7432;48.728;9.154;2023-04-22T01:02:34;95931.09;;;10.90;89.00
14689;BME280;7432;48.728;9.154;2023-04-22T01:05:01;95932.25;;;10.87;88.90
14689;BME280;7432;48.728;9.154;2023-04-22T01:07:28;95922.94;;;10.86;88.83
14689;BME280;7432;48.728;9.154;2023-04-22T01:09:55;95926.81;;;10.82;89.09
14689;BME280;7432;48.728;9.154;2023-04-22T01:12:22;95927.00;;;10.81;88.93
14689;BME280;7432;48.728;9.154;2023-04-22T01:14:49;95928.16;;;10.78;89.32
14689;BME280;7432;48.728;9.154;2023-04-22T01:17:16;95931.06;;;10.75;89.36
14689;BME280;7432;48.728;9.154;2023-04-22T01:19:43;95924.50;;;10.73;88.70
14689;BME280;7432;48.728;9.154;2023-04-22T01:22:12;95927.19;;;10.79;88.80
14689;BME280;7432;48.728;9.154;2023-04-22T01:24:40;95925.31;;;10.73;89.23
14689;BME280;7432;48.728;9.154;2023-04-22T01:27:07;95933.53;;;10.68;89.46
14689;BME280;7432;48.728;9.154;2023-04-22T01:29:34;95931.16;;;10.67;90.42
14689;BME280;7432;48.728;9.154;2023-04-22T01:32:02;95928.75;;;10.65;90.34
14689;BME280;7432;48.728;9.154;2023-04-22T01:34:29;95928.56;;;10.67;89.68
14689;BME280;7432;48.728;9.154;2023-04-22T01:36:55;95932.75;;;10.68;89.52
14689;BME280;7432;48.728;9.154;2023-04-22T01:39:22;95929.53;;;10.66;89.47
14689;BME280;7432;48.728;9.154;2023-04-22T01:41:50;95925.72;;;10.62;89.53
14689;BME280;7432;48.728;9.154;2023-04-22T01:44:17;95927.69;;;10.60;89.16
14689;BME280;7432;48.728;9.154;2023-04-22T01:46:44;95933.94;;;10.57;87.84
14689;BME280;7432;48.728;9.154;2023-04-22T01:49:10;95935.91;;;10.55;88.34
14689;BME280;7432;48.728;9.154;2023-04-22T01:51:37;95928.38;;;10.54;88.79
14689;BME280;7432;48.728;9.154;2023-04-22T01:54:03;95926.75;;;10.53;89.47
14689;BME280;7432;48.728;9.154;2023-04-22T01:56:30;95925.59;;;10.55;90.10
14689;BME280;7432;48.728;9.154;2023-04-22T01:58:58;95926.22;;;10.57;90.79
14689;BME280;7432;48.728;9.154;2023-04-22T02:01:24;95933.31;;;10.55;90.95
14689;BME280;7432;48.728;9.154;2023-04-22T02:03:50;95942.66;;;10.56;90.71
14689;BME280;7432;48.728;9.154;2023-04-22T02:06:17;95930.59;;;10.57;90.55
14689;BME280;7432;48.728;9.154;2023-04-22T02:08:43;95937.31;;;10.58;89.83
14689;BME280;7432;48.728;9.154;2023-04-22T02:11:10;95934.13;;;10.56;89.65
14689;BME280;7432;48.728;9.154;2023-04-22T02:13:37;95932.09;;;10.51;89.54
14689;BME280;7432;48.728;9.154;2023-04-22T02:16:06;95922.81;;;10.42;89.43
14689;BME280;7432;48.728;9.154;2023-04-22T02:18:33;95941.66;;;10.43;90.44
14689;BME280;7432;48.728;9.154;2023-04-22T02:20:59;95934.41;;;10.38;90.08
14689;BME280;7432;48.728;9.154;2023-04-22T02:23:26;95931.41;;;10.35;89.61
14689;BME280;7432;48.728;9.154;2023-04-22T02:25:53;95937.66;;;10.40;89.63
14689;BME280;7432;48.728;9.154;2023-04-22T02:28:20;95939.13;;;10.35;89.55
14689;BME280;7432;48.728;9.154;2023-04-22T02:30:46;95944.91;;;10.37;90.13
14689;BME280;7432;48.728;9.154;2023-04-22T02:33:14;95942.03;;;10.32;91.44
14689;BME280;7432;48.728;9.154;2023-04-22T02:35:40;95939.63;;;10.30;90.91
14689;BME280;7432;48.728;9.154;2023-04-22T02:38:07;95948.50;;;10.28;91.95
14689;BME280;7432;48.728;9.154;2023-04-22T02:40:33;95953.31;;;10.31;91.74
14689;BME280;7432;48.728;9.154;2023-04-22T02:42:59;95949.59;;;10.33;92.07
14689;BME280;7432;48.728;9.154;2023-04-22T02:45:26;95948.81;;;10.33;91.03
14689;BME280;7432;48.728;9.154;2023-04-22T02:47:52;95949.16;;;10.30;91.38
14689;BME280;7432;48.728;9.154;2023-04-22T02:50:20;95960.06;;;10.32;91.06
14689;BME280;7432;48.728;9.154;2023-04-22T02:52:46;95956.97;;;10.36;91.46
14689;BME280;7432;48.728;9.154;2023-04-22T02:55:13;95958.72;;;10.36;90.51
14689;BME280;7432;48.728;9.154;2023-04-22T02:57:39;95953.59;;;10.36;91.61
14689;BME280;7432;48.728;9.154;2023-04-22T03:00:07;95951.41;;;10.25;91.05
14689;BME280;7432;48.728;9.154;2023-04-22T03:02:34;95949.19;;;10.22;91.37
14689;BME280;7432;48.728;9.154;2023-04-22T03:05:00;95942.97;;;10.16;91.72
14689;BME280;7432;48.728;9.154;2023-04-22T03:07:28;95944.72;;;10.16;91.76
14689;BME280;7432;48.728;9.154;2023-04-22T03:09:54;95932.03;;;10.06;91.32
14689;BME280;7432;48.728;9.154;2023-04-22T03:12:21;95937.88;;;10.00;92.28
14689;BME280;7432;48.728;9.154;2023-04-22T03:14:47;95935.00;;;9.95;93.49
14689;BME280;7432;48.728;9.154;2023-04-22T03:17:14;95939.72;;;9.91;93.00
14689;BME280;7432;48.728;9.154;2023-04-22T03:19:40;95937.75;;;9.93;93.23
14689;BME280;7432;48.728;9.154;2023-04-22T03:22:06;95943.41;;;9.89;93.83
14689;BME280;7432;48.728;9.154;2023-04-22T03:24:34;95947.91;;;9.87;94.41
14689;BME280;7432;48.728;9.154;2023-04-22T03:27:00;95949.22;;;9.83;94.25
14689;BME280;7432;48.728;9.154;2023-04-22T03:29:28;95952.47;;;9.77;94.44
14689;BME280;7432;48.728;9.154;2023-04-22T03:31:54;95929.19;;;9.70;95.29
14689;BME280;7432;48.728;9.154;2023-04-22T03:34:20;95944.94;;;9.75;95.52
14689;BME280;7432;48.728;9.154;2023-04-22T03:36:47;95936.56;;;9.73;95.47
14689;BME280;7432;48.728;9.154;2023-04-22T03:39:13;95947.50;;;9.75;95.66
14689;BME280;7432;48.728;9.154;2023-04-22T03:41:41;95948.25;;;9.84;95.38
14689;BME280;7432;48.728;9.154;2023-04-22T03:44:07;95945.34;;;9.87;95.18
14689;BME280;7432;48.728;9.154;2023-04-22T03:46:34;95957.56;;;9.85;95.52
14689;BME280;7432;48.728;9.154;2023-04-22T03:49:01;95958.41;;;9.77;96.17
14689;BME280;7432;48.728;9.154;2023-04-22T03:51:27;95950.84;;;9.76;95.99
14689;BME280;7432;48.728;9.154;2023-04-22T03:53:54;95955.38;;;9.74;96.28
14689;BME280;7432;48.728;9.154;2023-04-22T03:56:20;95952.19;;;9.72;95.78
14689;BME280;7432;48.728;9.154;2023-04-22T03:58:49;95961.66;;;9.71;96.47
14689;BME280;7432;48.728;9.154;2023-04-22T04:01:16;95962.63;;;9.70;96.47
14689;BME280;7432;48.728;9.154;2023-04-22T04:03:42;95961.84;;;9.70;96.82
14689;BME280;7432;48.728;9.154;2023-04-22T04:06:08;95962.97;;;9.59;96.93
14689;BME280;7432;48.728;9.154;2023-04-22T04:08:35;95959.97;;;9.56;97.13
14689;BME280;7432;48.728;9.154;2023-04-22T04:11:01;95954.97;;;9.54;97.01
14689;BME280;7432;48.728;9.154;2023-04-22T04:13:28;95950.97;;;9.51;96.15
14689;BME280;7432;48.728;9.154;2023-04-22T04:15:57;95954.69;;;9.49;96.40
14689;BME280;7432;48.728;9.154;2023-04-22T04:18:24;95958.56;;;9.45;95.98
14689;BME280;7432;48.728;9.154;2023-04-22T04:20:51;95956.47;;;9.40;96.30
14689;BME280;7432;48.728;9.154;2023-04-22T04:23:17;95954.72;;;9.41;97.03
14689;BME280;7432;48.728;9.154;2023-04-22T04:25:43;95951.31;;;9.40;97.09
14689;BME280;7432;48.728;9.154;2023-04-22T04:28:10;95949.91;;;9.38;96.44
14689;BME280;7432;48.728;9.154;2023-04-22T04:30:37;95958.22;;;9.40;97.62
14689;BME280;7432;48.728;9.154;2023-04-22T04:33:07;95958.59;;;9.37;96.65
14689;BME280;7432;48.728;9.154;2023-04-22T04:35:35;95959.06;;;9.32;97.10
14689;BME280;7432;48.728;9.154;2023-04-22T04:38:02;95951.84;;;9.36;96.85
14689;BME280;7432;48.728;9.154;2023-04-22T04:40:29;95948.97;;;9.31;97.08
14689;BME280;7432;48.728;9.154;2023-04-22T04:42:56;95944.47;;;9.33;97.20
14689;BME280;7432;48.728;9.154;2023-04-22T04:45:23;95943.94;;;9.37;97.21
14689;BME280;7432;48.728;9.154;2023-04-22T04:47:49;95943.94;;;9.37;96.85
14689;BME280;7432;48.728;9.154;2023-04-22T04:50:18;95942.38;;;9.36;97.05
14689;BME280;7432;48.728;9.154;2023-04-22T04:52:45;95937.69;;;9.40;96.84
14689;BME280;7432;48.728;9.154;2023-04-22T04:55:13;95950.66;;;9.46;96.81
14689;BME280;7432;48.728;9.154;2023-04-22T04:57:39;95946.00;;;9.50;96.73
14689;BME280;7432;48.728;9.154;2023-04-22T05:00:06;95944.88;;;9.52;96.35
14689;BME280;7432;48.728;9.154;2023-04-22T05:02:33;95939.56;;;9.54;96.76
14689;BME280;7432;48.728;9.154;2023-04-22T05:04:59;95937.63;;;9.56;96.73
14689;BME280;7432;48.728;9.154;2023-04-22T05:07:27;95937.47;;;9.58;96.84
14689;BME280;7432;48.728;9.154;2023-04-22T05:09:53;95934.03;;;9.65;95.74
14689;BME280;7432;48.728;9.154;2023-04-22T05:12:19;95925.66;;;9.71;96.02
14689;BME280;7432;48.728;9.154;2023-04-22T05:14:46;95941.38;;;9.76;95.57
14689;BME280;7432;48.728;9.154;2023-04-22T05:17:12;95940.09;;;9.80;95.96
14689;BME280;7432;48.728;9.154;2023-04-22T05:19:39;95937.00;;;9.85;94.84
14689;BME280;7432;48.728;9.154;2023-04-22T05:22:06;95933.91;;;9.89;94.59
14689;BME280;7432;48.728;9.154;2023-04-22T05:24:34;95936.81;;;9.94;93.54
14689;BME280;7432;48.728;9.154;2023-04-22T05:27:00;95934.66;;;9.98;93.73
14689;BME280;7432;48.728;9.154;2023-04-22T05:29:27;95943.47;;;10.03;93.13
14689;BME280;7432;48.728;9.154;2023-04-22T05:31:53;95946.69;;;10.14;92.26
14689;BME280;7432;48.728;9.154;2023-04-22T05:34:20;95945.63;;;10.23;91.33
14689;BME280;7432;48.728;9.154;2023-04-22T05:36:46;95950.38;;;10.34;91.82
14689;BME280;7432;48.728;9.154;2023-04-22T05:39:12;95957.72;;;10.45;91.14
14689;BME280;7432;48.728;9.154;2023-04-22T05:41:40;95956.03;;;10.52;90.66
14689;BME280;7432;48.728;9.154;2023-04-22T05:44:06;95961.16;;;10.60;90.03
14689;BME280;7432;48.728;9.154;2023-04-22T05:46:33;95962.84;;;10.67;90.33
14689;BME280;7432;48.728;9.154;2023-04-22T05:48:59;95967.88;;;10.84;89.79
14689;BME280;7432;48.728;9.154;2023-04-22T05:51:25;95964.25;;;11.07;88.73
14689;BME280;7432;48.728;9.154;2023-04-22T05:53:52;95962.06;;;11.34;87.58
14689;BME280;7432;48.728;9.154;2023-04-22T05:56:19;95962.66;;;11.65;86.80
14689;BME280;7432;48.728;9.154;2023-04-22T05:58:46;95957.31;;;11.96;85.11
14689;BME280;7432;48.728;9.154;2023-04-22T06:01:13;95965.66;;;12.33;84.11
14689;BME280;7432;48.728;9.154;2023-04-22T06:03:39;95967.81;;;13.00;81.94
14689;BME280;7432;48.728;9.154;2023-04-22T06:06:06;95963.75;;;13.81;77.99
14689;BME280;7432;48.728;9.154;2023-04-22T06:08:32;95965.16;;;14.44;73.89
14689;BME280;7432;48.728;9.154;2023-04-22T06:10:58;95973.56;;;14.78;70.09
14689;BME280;7432;48.728;9.154;2023-04-22T06:13:25;95978.78;;;14.92;69.08
14689;BME280;7432;48.728;9.154;2023-04-22T06:15:53;95974.75;;;14.89;69.62
14689;BME280;7432;48.728;9.154;2023-04-22T06:18:19;95973.78;;;14.90;69.75
14689;BME280;7432;48.728;9.154;2023-04-22T06:20:46;95974.78;;;15.15;68.85
14689;BME280;7432;48.728;9.154;2023-04-22T06:23:12;95976.06;;;15.83;66.91
14689;BME280;7432;48.728;9.154;2023-04-22T06:25:38;95975.81;;;16.98;63.37
14689;BME280;7432;48.728;9.154;2023-04-22T06:28:05;95983.91;;;18.12;59.43
14689;BME280;7432;48.728;9.154;2023-04-22T06:30:31;95985.69;;;18.48;57.63
14689;BME280;7432;48.728;9.154;2023-04-22T06:32:59;95986.34;;;18.25;57.09
14689;BME280;7432;48.728;9.154;2023-04-22T06:35:25;95980.88;;;17.79;57.99
14689;BME280;7432;48.728;9.154;2023-04-22T06:37:52;95983.66;;;17.41;58.61
14689;BME280;7432;48.728;9.154;2023-04-22T06:40:18;95988.88;;;17.16;59.86
14689;BME280;7432;48.728;9.154;2023-04-22T06:42:44;95984.09;;;16.89;61.22
14689;BME280;7432;48.728;9.154;2023-04-22T06:45:11;95982.69;;;16.62;62.21
14689;BME280;7432;48.728;9.154;2023-04-22T06:47:37;95980.41;;;16.34;63.21
14689;BME280;7432;48.728;9.154;2023-04-22T06:50:06;95986.97;;;16.05;63.30
14689;BME280;7432;48.728;9.154;2023-04-22T06:52:33;95984.81;;;15.95;64.04
14689;BME280;7432;48.728;9.154;2023-04-22T06:55:00;95984.44;;;15.85;64.49
14689;BME280;7432;48.728;9.154;2023-04-22T06:57:27;95991.50;;;15.65;64.70
14689;BME280;7432;48.728;9.154;2023-04-22T06:59:54;95996.09;;;15.57;64.40
14689;BME280;7432;48.728;9.154;2023-04-22T07:02:20;95989.13;;;15.51;64.29
14689;BME280;7432;48.728;9.154;2023-04-22T07:04:47;95987.09;;;15.59;65.66
14689;BME280;7432;48.728;9.154;2023-04-22T07:07:15;95993.88;;;15.60;66.03
14689;BME280;7432;48.728;9.154;2023-04-22T07:09:41;95988.63;;;15.80;65.29
14689;BME280;7432;48.728;9.154;2023-04-22T07:12:07;95987.59;;;16.00;64.06
14689;BME280;7432;48.728;9.154;2023-04-22T07:14:34;95984.69;;;16.22;63.37
14689;BME280;7432;48.728;9.154;2023-04-22T07:17:00;95984.78;;;16.40;63.30
14689;BME280;7432;48.728;9.154;2023-04-22T07:19:26;95979.50;;;16.59;61.17
14689;BME280;7432;48.728;9.154;2023-04-22T07:21:54;95974.75;;;16.81;61.23
14689;BME280;7432;48.728;9.154;2023-04-22T07:24:21;95975.25;;;16.96;60.80
14689;BME280;7432;48.728;9.154;2023-04-22T07:26:48;95971.88;;;17.14;60.30
14689;BME280;7432;48.728;9.154;2023-04-22T07:29:14;95974.97;;;17.29;61.02
14689;BME280;7432;48.728;9.154;2023-04-22T07:31:41;95971.69;;;17.58;59.81
14689;BME280;7432;48.728;9.154;2023-04-22T07:34:07;95958.97;;;17.87;58.93
14689;BME280;7432;48.728;9.154;2023-04-22T07:36:34;95960.38;;;18.19;57.60
14689;BME280;7432;48.728;9.154;2023-04-22T07:39:01;95965.47;;;18.44;56.69
14689;BME280;7432;48.728;9.154;2023-04-22T07:41:29;95970.38;;;18.93;55.63
14689;BME280;7432;48.728;9.154;2023-04-22T07:43:55;95978.13;;;19.23;55.56
14689;BME280;7432;48.728;9.154;2023-04-22T07:46:22;95977.03;;;19.42;54.63
14689;BME280;7432;48.728;9.154;2023-04-22T07:48:48;95975.88;;;19.38;54.41
14689;BME280;7432;48.728;9.154;2023-04-22T07:51:15;95981.22;;;19.55;54.72
14689;BME280;7432;48.728;9.154;2023-04-22T07:53:41;95984.38;;;19.57;54.30
14689;BME280;7432;48.728;9.154;2023-04-22T07:56:07;95991.91;;;19.53;52.94
14689;BME280;7432;48.728;9.154;2023-04-22T07:58:35;95989.16;;;19.60;53.28
14689;BME280;7432;48.728;9.154;2023-04-22T08:01:02;95993.91;;;19.63;53.28
14689;BME280;7432;48.728;9.154;2023-04-22T08:03:28;95998.94;;;19.52;53.30
14689;BME280;7432;48.728;9.154;2023-04-22T08:05:54;96005.16;;;19.63;53.31
14689;BME280;7432;48.728;9.154;2023-04-22T08:08:22;96003.66;;;19.90;53.29
14689;BME280;7432;48.728;9.154;2023-04-22T08:10:48;95998.72;;;20.29;52.71
14689;BME280;7432;48.728;9.154;2023-04-22T08:13:15;96010.75;;;20.18;50.40
14689;BME280;7432;48.728;9.154;2023-04-22T08:15:42;96002.94;;;20.75;50.63
14689;BME280;7432;48.728;9.154;2023-04-22T08:18:09;95995.59;;;21.05;49.21
14689;BME280;7432;48.728;9.154;2023-04-22T08:20:35;95997.91;;;21.01;49.20
14689;BME280;7432;48.728;9.154;2023-04-22T08:23:02;96005.34;;;21.76;48.20
14689;BME280;7432;48.728;9.154;2023-04-22T08:25:28;96000.06;;;22.58;46.42
14689;BME280;7432;48.728;9.154;2023-04-22T08:27:55;96005.38;;;23.53;44.01
14689;BME280;7432;48.728;9.154;2023-04-22T08:30:22;96008.69;;;24.27;42.10
14689;BME280;7432;48.728;9.154;2023-04-22T08:32:50;96002.53;;;26.54;38.49
14689;BME280;7432;48.728;9.154;2023-04-22T08:35:17;96008.44;;;29.77;34.06
14689;BME280;7432;48.728;9.154;2023-04-22T08:37:44;96017.97;;;32.07;30.81
14689;BME280;7432;48.728;9.154;2023-04-22T08:40:10;96015.81;;;33.34;29.10
14689;BME280;7432;48.728;9.154;2023-04-22T08:42:37;96013.13;;;32.74;27.78
14689;BME280;7432;48.728;9.154;2023-04-22T08:45:04;96009.38;;;33.52;27.73
14689;BME280;7432;48.728;9.154;2023-04-22T08:47:31;96010.66;;;34.01;27.67
14689;BME280;7432;48.728;9.154;2023-04-22T08:50:00;96005.38;;;34.51;27.37
14689;BME280;7432;48.728;9.154;2023-04-22T08:52:29;96009.88;;;33.28;27.45
14689;BME280;7432;48.728;9.154;2023-04-22T08:54:55;96006.19;;;33.67;27.27
14689;BME280;7432;48.728;9.154;2023-04-22T08:57:22;96003.56;;;33.59;26.20
14689;BME280;7432;48.728;9.154;2023-04-22T08:59:49;95996.66;;;34.13;25.82
14689;BME280;7432;48.728;9.154;2023-04-22T09:02:18;96007.75;;;35.56;26.17
14689;BME280;7432;48.728;9.154;2023-04-22T09:04:46;96005.06;;;36.61;24.90
14689;BME280;7432;48.728;9.154;2023-04-22T09:07:18;95997.91;;;36.41;23.08
14689;BME280;7432;48.728;9.154;2023-04-22T09:09:46;95997.31;;;36.72;23.81
14689;BME280;7432;48.728;9.154;2023-04-22T09:12:12;95992.22;;;36.55;23.95
14689;BME280;7432;48.728;9.154;2023-04-22T09:14:39;95994.31;;;35.44;24.38
14689;BME280;7432;48.728;9.154;2023-04-22T09:17:06;95988.03;;;36.69;24.54
14689;BME280;7432;48.728;9.154;2023-04-22T09:19:32;96005.59;;;36.43;23.85
14689;BME280;7432;48.728;9.154;2023-04-22T09:21:59;95992.25;;;35.61;24.82
14689;BME280;7432;48.728;9.154;2023-04-22T09:24:28;95989.25;;;34.39;26.04
14689;BME280;7432;48.728;9.154;2023-04-22T09:26:55;95982.31;;;33.54;26.35
14689;BME280;7432;48.728;9.154;2023-04-22T09:29:21;95988.72;;;31.54;27.35
14689;BME280;7432;48.728;9.154;2023-04-22T09:31:48;95986.16;;;33.35;26.84
14689;BME280;7432;48.728;9.154;2023-04-22T09:34:15;95985.16;;;34.12;26.33
14689;BME280;7432;48.728;9.154;2023-04-22T09:36:42;95993.09;;;34.59;25.54
14689;BME280;7432;48.728;9.154;2023-04-22T09:39:10;95979.94;;;34.45;24.87
14689;BME280;7432;48.728;9.154;2023-04-22T09:41:39;95981.25;;;34.10;24.68
14689;BME280;7432;48.728;9.154;2023-04-22T09:44:08;95980.03;;;34.57;24.77
14689;BME280;7432;48.728;9.154;2023-04-22T09:46:35;95979.75;;;34.50;25.54
14689;BME280;7432;48.728;9.154;2023-04-22T09:49:01;95977.09;;;34.21;25.84
14689;BME280;7432;48.728;9.154;2023-04-22T09:51:28;95974.47;;;34.04;25.42
14689;BME280;7432;48.728;9.154;2023-04-22T09:53:57;95973.63;;;34.20;25.50
14689;BME280;7432;48.728;9.154;2023-04-22T09:59:20;95970.38;;;35.06;24.82
14689;BME280;7432;48.728;9.154;2023-04-22T10:01:48;95967.72;;;33.97;25.01
14689;BME280;7432;48.728;9.154;2023-04-22T10:04:14;95962.25;;;33.94;25.48
14689;BME280;7432;48.728;9.154;2023-04-22T10:06:45;95955.31;;;34.51;24.08
14689;BME280;7432;48.728;9.154;2023-04-22T10:09:12;95954.28;;;35.59;23.90
14689;BME280;7432;48.728;9.154;2023-04-22T10:11:38;95957.59;;;36.77;22.04
14689;BME280;7432;48.728;9.154;2023-04-22T10:14:05;95965.47;;;37.69;21.34
14689;BME280;7432;48.728;9.154;2023-04-22T10:16:37;95970.69;;;37.78;21.11
14689;BME280;7432;48.728;9.154;2023-04-22T10:19:06;95968.69;;;37.59;20.59
14689;BME280;7432;48.728;9.154;2023-04-22T10:21:33;95966.78;;;37.75;21.14
14689;BME280;7432;48.728;9.154;2023-04-22T10:24:00;95971.28;;;37.71;20.86
14689;BME280;7432;48.728;9.154;2023-04-22T10:26:46;95957.16;;;37.31;21.57
14689;BME280;7432;48.728;9.154;2023-04-22T10:29:15;95955.34;;;37.94;20.84
14689;BME280;7432;48.728;9.154;2023-04-22T10:31:44;95959.94;;;37.78;20.95
14689;BME280;7432;48.728;9.154;2023-04-22T10:34:11;95952.19;;;37.17;20.77
14689;BME280;7432;48.728;9.154;2023-04-22T10:36:55;95946.31;;;37.86;20.35
14689;BME280;7432;48.728;9.154;2023-04-22T10:39:22;95951.41;;;36.25;18.97
14689;BME280;7432;48.728;9.154;2023-04-22T10:41:55;95938.34;;;35.42;20.78
14689;BME280;7432;48.728;9.154;2023-04-22T10:44:22;95933.50;;;35.56;20.96
14689;BME280;7432;48.728;9.154;2023-04-22T10:47:00;95937.09;;;35.85;20.49
14689;BME280;7432;48.728;9.154;2023-04-22T10:49:29;95931.25;;;35.58;19.82
14689;BME280;7432;48.728;9.154;2023-04-22T10:51:57;95935.97;;;35.98;20.55
14689;BME280;7432;48.728;9.154;2023-04-22T10:54:57;95927.41;;;34.82;20.88
14689;BME280;7432;48.728;9.154;2023-04-22T10:57:33;95915.50;;;34.09;22.14
14689;BME280;7432;48.728;9.154;2023-04-22T11:00:23;95921.00;;;31.77;22.51
14689;BME280;7432;48.728;9.154;2023-04-22T11:02:53;95925.88;;;31.92;23.76
14689;BME280;7432;48.728;9.154;2023-04-22T11:05:22;95929.78;;;32.51;25.04
14689;BME280;7432;48.728;9.154;2023-04-22T11:07:50;95921.78;;;32.51;23.67
14689;BME280;7432;48.728;9.154;2023-04-22T11:10:32;95921.13;;;31.81;24.02
14689;BME280;7432;48.728;9.154;2023-04-22T11:12:59;95914.69;;;31.73;23.84
14689;BME280;7432;48.728;9.154;2023-04-22T11:15:27;95924.28;;;32.39;24.56
14689;BME280;7432;48.728;9.154;2023-04-22T11:17:56;95925.88;;;32.83;23.13
14689;BME280;7432;48.728;9.154;2023-04-22T11:20:22;95913.44;;;32.36;22.93
14689;BME280;7432;48.728;9.154;2023-04-22T11:22:50;95920.25;;;32.59;23.59
14689;BME280;7432;48.728;9.154;2023-04-22T11:25:17;95915.50;;;32.47;23.34
14689;BME280;7432;48.728;9.154;2023-04-22T11:27:44;95918.16;;;32.39;23.26
14689;BME280;7432;48.728;9.154;2023-04-22T11:30:12;95917.00;;;31.57;24.06
14689;BME280;7432;48.728;9.154;2023-04-22T11:32:41;95907.06;;;31.19;22.81
14689;BME280;7432;48.728;9.154;2023-04-22T11:35:11;95894.34;;;31.16;24.03
14689;BME280;7432;48.728;9.154;2023-04-22T11:37:41;95906.34;;;30.11;25.20
14689;BME280;7432;48.728;9.154;2023-04-22T11:40:09;95910.19;;;29.77;26.28
14689;BME280;7432;48.728;9.154;2023-04-22T11:42:35;95900.59;;;28.90;27.88
14689;BME280;7432;48.728;9.154;2023-04-22T11:45:02;95902.91;;;28.03;26.80
14689;BME280;7432;48.728;9.154;2023-04-22T11:47:29;95897.03;;;27.58;28.44
14689;BME280;7432;48.728;9.154;2023-04-22T11:49:56;95890.84;;;27.16;28.94
14689;BME280;7432;48.728;9.154;2023-04-22T11:52:25;95882.84;;;26.92;30.05
14689;BME280;7432;48.728;9.154;2023-04-22T11:55:04;95883.44;;;26.50;31.06
14689;BME280;7432;48.728;9.154;2023-04-22T11:57:34;95892.31;;;26.25;31.09
14689;BME280;7432;48.728;9.154;2023-04-22T12:00:01;95882.66;;;26.01;31.17
14689;BME280;7432;48.728;9.154;2023-04-22T12:02:27;95880.16;;;25.60;31.63
14689;BME280;7432;48.728;9.154;2023-04-22T12:04:57;95886.28;;;25.51;31.05
14689;BME280;7432;48.728;9.154;2023-04-22T12:07:26;95881.00;;;25.56;32.43
14689;BME280;7432;48.728;9.154;2023-04-22T12:09:53;95878.34;;;25.56;30.69
14689;BME280;7432;48.728;9.154;2023-04-22T12:12:23;95874.44;;;25.38;32.67
14689;BME280;7432;48.728;9.154;2023-04-22T12:14:49;95875.75;;;25.25;32.47
14689;BME280;7432;48.728;9.154;2023-04-22T12:17:21;95877.41;;;25.01;33.85
14689;BME280;7432;48.728;9.154;2023-04-22T12:19:52;95877.13;;;25.03;33.02
14689;BME280;7432;48.728;9.154;2023-04-22T12:22:27;95878.47;;;24.90;32.06
14689;BME280;7432;48.728;9.154;2023-04-22T12:24:56;95877.09;;;24.67;33.39
14689;BME280;7432;48.728;9.154;2023-04-22T12:27:23;95873.41;;;24.48;32.89
14689;BME280;7432;48.728;9.154;2023-04-22T12:29:50;95871.34;;;24.55;32.04
14689;BME280;7432;48.728;9.154;2023-04-22T12:32:17;95876.59;;;24.55;33.07
14689;BME280;7432;48.728;9.154;2023-04-22T12:34:43;95872.91;;;24.66;32.55
14689;BME280;7432;48.728;9.154;2023-04-22T12:37:10;95871.06;;;24.72;33.34
14689;BME280;7432;48.728;9.154;2023-04-22T12:39:38;95877.41;;;24.91;33.13
14689;BME280;7432;48.728;9.154;2023-04-22T12:42:05;95874.22;;;25.09;31.93
14689;BME280;7432;48.728;9.154;2023-04-22T12:44:31;95882.38;;;25.18;32.03
14689;BME280;7432;48.728;9.154;2023-04-22T12:46:58;95881.84;;;25.26;31.79
14689;BME280;7432;48.728;9.154;2023-04-22T12:49:25;95874.41;;;25.33;31.51
14689;BME280;7432;48.728;9.154;2023-04-22T12:51:51;95881.03;;;25.25;32.86
14689;BME280;7432;48.728;9.154;2023-04-22T12:54:17;95876.03;;;25.24;32.59
14689;BME280;7432;48.728;9.154;2023-04-22T12:56:46;95878.19;;;24.97;32.00
14689;BME280;7432;48.728;9.154;2023-04-22T12:59:12;95873.44;;;24.68;32.68
14689;BME280;7432;48.728;9.154;2023-04-22T13:01:38;95868.44;;;24.82;32.46
14689;BME280;7432;48.728;9.154;2023-04-22T13:04:05;95876.09;;;24.99;32.07
14689;BME280;7432;48.728;9.154;2023-04-22T13:06:31;95875.25;;;24.73;33.62
14689;BME280;7432;48.728;9.154;2023-04-22T13:08:58;95867.38;;;24.63;32.43
14689;BME280;7432;48.728;9.154;2023-04-22T13:11:25;95871.84;;;24.62;32.04
14689;BME280;7432;48.728;9.154;2023-04-22T13:13:52;95869.47;;;24.26;33.05
14689;BME280;7432;48.728;9.154;2023-04-22T13:16:19;95880.75;;;24.11;33.24